Time;durP1;ratioP1;P1;durP2;ratioP2;P2;SDS_P1;SDS_P2;PMS_P1;PMS_P2;Temp;Humidity;BMP_temperature;BMP_pressure;BME280_temperature;BME280_humidity;BME280_pressure;Samples;Min_cycle;Max_cycle;Signal;HPM_P1;HPM_P2
2023/08/13 00:01:42;;;;;;;8.10;2.60;;;17.40;99.90;;;;;;4863982;29;20513;-51
2023/08/13 00:04:08;;;;;;;8.05;2.72;;;17.40;99.90;;;;;;4863895;29;20218;-51
2023/08/13 00:06:34;;;;;;;8.18;2.47;;;17.40;99.90;;;;;;4863934;29;20213;-47
2023/08/13 00:08:59;;;;;;;8.35;2.63;;;17.30;99.90;;;;;;4863846;29;20185;-51
2023/08/13 00:11:25;;;;;;;9.02;2.95;;;17.20;99.90;;;;;;4863770;29;20193;-52
2023/08/13 00:13:50;;;;;;;6.85;2.70;;;17.20;99.90;;;;;;4863628;29;20186;-49
2023/08/13 00:16:16;;;;;;;11.18;2.53;;;17.30;99.90;;;;;;4863447;29;20185;-49
2023/08/13 00:18:42;;;;;;;5.80;2.60;;;17.30;99.90;;;;;;4863708;29;20205;-51
2023/08/13 00:21:07;;;;;;;8.73;2.90;;;17.30;99.90;;;;;;4863935;29;20607;-52
2023/08/13 00:23:33;;;;;;;7.70;2.50;;;17.30;99.90;;;;;;4863450;29;20305;-52
2023/08/13 00:25:59;;;;;;;8.65;3.20;;;17.20;99.90;;;;;;4863519;29;20206;-50
2023/08/13 00:28:24;;;;;;;10.35;2.70;;;17.20;99.90;;;;;;4863329;29;20214;-52
2023/08/13 00:30:50;;;;;;;9.93;2.97;;;17.20;99.90;;;;;;4863237;29;20217;-50
2023/08/13 00:33:16;;;;;;;5.20;2.60;;;17.20;99.90;;;;;;4863476;29;20194;-50
2023/08/13 00:35:41;;;;;;;5.75;2.63;;;17.20;99.90;;;;;;4863275;29;20274;-52
2023/08/13 00:38:08;;;;;;;7.07;2.50;;;17.20;99.90;;;;;;4863329;29;20230;-51
2023/08/13 00:40:34;;;;;;;9.88;2.78;;;17.10;99.90;;;;;;4863187;29;20188;-50
2023/08/13 00:43:00;;;;;;;6.82;2.65;;;17.10;99.90;;;;;;4863049;29;20269;-52
2023/08/13 00:45:25;;;;;;;9.27;2.92;;;17.20;99.90;;;;;;4863288;29;20186;-48
2023/08/13 00:47:52;;;;;;;12.88;3.40;;;17.10;99.90;;;;;;4863554;29;20216;-47
2023/08/13 00:50:18;;;;;;;7.65;2.60;;;17.00;99.90;;;;;;4863183;29;20178;-47
2023/08/13 00:52:44;;;;;;;8.02;2.78;;;17.10;99.90;;;;;;4863040;29;20174;-49
2023/08/13 00:55:11;;;;;;;7.15;2.55;;;17.10;99.90;;;;;;4863030;29;20205;-51
2023/08/13 00:57:37;;;;;;;7.00;2.45;;;17.10;99.90;;;;;;4862885;29;20213;-51
2023/08/13 01:00:06;;;;;;;9.85;2.53;;;17.10;99.90;;;;;;4862823;29;20642;-50
2023/08/13 01:02:32;;;;;;;8.05;2.55;;;17.10;99.90;;;;;;4862837;29;20182;-50
2023/08/13 01:04:58;;;;;;;7.40;2.70;;;17.10;99.90;;;;;;4862936;29;20178;-51
2023/08/13 01:07:40;;;;;;;4.95;2.40;;;17.00;99.90;;;;;;4862731;29;20278;-51
2023/08/13 01:10:26;;;;;;;7.20;2.17;;;17.00;99.90;;;;;;4862643;29;20194;-53
2023/08/13 01:12:58;;;;;;;9.32;2.65;;;16.90;99.90;;;;;;4846250;29;20666;-52
2023/08/13 01:15:41;;;;;;;7.13;2.60;;;17.00;99.90;;;;;;4862541;29;20177;-52
2023/08/13 01:18:09;;;;;;;8.55;2.72;;;16.90;99.90;;;;;;4862558;29;20543;-50
2023/08/13 01:20:37;;;;;;;8.80;2.30;;;16.90;99.90;;;;;;4862520;29;20181;-50
2023/08/13 01:23:03;;;;;;;7.90;2.20;;;16.90;99.90;;;;;;4862266;29;20702;-48
2023/08/13 01:25:29;;;;;;;8.90;2.70;;;16.90;99.90;;;;;;4862309;29;20186;-49
2023/08/13 01:28:06;;;;;;;5.38;2.47;;;16.90;99.90;;;;;;4862410;29;20182;-52
2023/08/13 01:30:55;;;;;;;10.13;2.92;;;16.80;99.90;;;;;;4862381;29;20181;-49
2023/08/13 01:33:28;;;;;;;7.80;2.75;;;16.90;99.90;;;;;;4862191;29;20182;-49
2023/08/13 01:35:57;;;;;;;6.53;2.78;;;16.80;99.90;;;;;;4862363;29;20707;-52
2023/08/13 01:38:23;;;;;;;9.27;3.00;;;16.70;99.90;;;;;;4862271;29;20207;-51
2023/08/13 01:40:50;;;;;;;9.57;2.55;;;16.70;99.90;;;;;;4862144;29;20187;-51
2023/08/13 01:43:16;;;;;;;5.93;2.28;;;16.70;99.90;;;;;;4862093;29;20232;-51
2023/08/13 01:45:42;;;;;;;9.32;2.95;;;16.70;99.90;;;;;;4862021;29;20282;-51
2023/08/13 01:48:08;;;;;;;9.25;2.63;;;16.70;99.90;;;;;;4861936;29;20218;-49
2023/08/13 01:50:34;;;;;;;7.43;2.90;;;16.70;99.90;;;;;;4861805;29;20178;-51
2023/08/13 01:53:00;;;;;;;8.07;2.67;;;16.60;99.90;;;;;;4861758;29;20609;-48
2023/08/13 01:55:25;;;;;;;10.77;3.10;;;16.70;99.90;;;;;;4862267;29;20193;-51
2023/08/13 01:57:51;;;;;;;8.95;2.83;;;16.80;99.90;;;;;;4861917;29;20182;-49
2023/08/13 02:00:17;;;;;;;6.28;3.13;;;16.70;99.90;;;;;;4861821;29;20188;-52
2023/08/13 02:02:43;;;;;;;5.07;2.40;;;16.70;99.90;;;;;;4861531;29;20267;-52
2023/08/13 02:05:08;;;;;;;6.80;2.75;;;16.70;99.90;;;;;;4861995;29;20639;-49
2023/08/13 02:07:34;;;;;;;7.28;2.75;;;16.70;99.90;;;;;;4861751;29;20197;-50
2023/08/13 02:10:00;;;;;;;5.65;2.45;;;16.60;99.90;;;;;;4861681;29;20544;-52
2023/08/13 02:12:26;;;;;;;7.88;2.50;;;16.60;99.90;;;;;;4861747;29;20185;-52
2023/08/13 02:14:51;;;;;;;7.45;2.50;;;16.70;99.90;;;;;;4861552;29;20190;-52
2023/08/13 02:17:17;;;;;;;7.88;2.42;;;16.60;99.90;;;;;;4861415;29;20189;-51
2023/08/13 02:19:43;;;;;;;8.82;2.90;;;16.60;99.90;;;;;;4861556;29;20182;-49
2023/08/13 02:22:08;;;;;;;5.40;2.53;;;16.60;99.90;;;;;;4861413;29;20265;-51
2023/08/13 02:24:34;;;;;;;6.25;2.53;;;16.60;99.90;;;;;;4861407;29;20301;-50
2023/08/13 02:27:00;;;;;;;7.45;2.85;;;16.60;99.90;;;;;;4861401;29;20211;-52
2023/08/13 02:29:25;;;;;;;6.30;2.58;;;16.60;99.90;;;;;;4861429;29;20628;-51
2023/08/13 02:31:51;;;;;;;6.18;2.55;;;16.70;99.90;;;;;;4861205;29;20182;-50
2023/08/13 02:34:16;;;;;;;6.60;2.80;;;16.70;99.90;;;;;;4861424;29;20222;-50
2023/08/13 02:36:42;;;;;;;9.32;2.75;;;16.70;99.90;;;;;;4861183;29;20229;-52
2023/08/13 02:39:08;;;;;;;8.48;2.53;;;16.70;99.90;;;;;;4861478;29;20265;-53
2023/08/13 02:41:33;;;;;;;5.22;2.28;;;16.60;99.90;;;;;;4861265;29;20178;-52
2023/08/13 02:43:59;;;;;;;7.40;2.47;;;16.70;99.90;;;;;;4861113;29;20583;-50
2023/08/13 02:46:26;;;;;;;5.47;2.60;;;16.70;99.90;;;;;;4861123;29;20194;-52
2023/08/13 02:48:56;;;;;;;7.93;2.65;;;16.70;99.90;;;;;;4861180;29;20230;-51
2023/08/13 02:51:23;;;;;;;7.05;2.88;;;16.70;99.90;;;;;;4861374;29;20182;-51
2023/08/13 02:53:48;;;;;;;8.02;3.00;;;16.70;99.90;;;;;;4861177;29;20540;-50
2023/08/13 02:56:14;;;;;;;6.78;2.45;;;16.60;99.90;;;;;;4861085;29;20181;-51
2023/08/13 02:58:40;;;;;;;10.43;2.72;;;16.70;99.90;;;;;;4860994;29;20664;-52
2023/08/13 03:01:05;;;;;;;9.88;2.65;;;16.60;99.90;;;;;;4860991;29;20577;-52
2023/08/13 03:03:31;;;;;;;5.07;2.38;;;16.60;99.90;;;;;;4843684;29;20228;-48
2023/08/13 03:05:57;;;;;;;8.25;2.85;;;16.60;99.90;;;;;;4860994;29;20189;-50
2023/08/13 03:08:23;;;;;;;6.57;2.55;;;16.70;99.90;;;;;;4860938;29;20190;-52
2023/08/13 03:10:50;;;;;;;11.20;2.85;;;16.60;99.90;;;;;;4860885;29;20254;-51
2023/08/13 03:13:15;;;;;;;10.57;2.67;;;16.60;99.90;;;;;;4860900;29;20644;-48
2023/08/13 03:15:41;;;;;;;12.10;3.00;;;16.70;99.90;;;;;;4860797;29;20243;-51
2023/08/13 03:18:07;;;;;;;7.95;2.42;;;16.70;99.90;;;;;;4860973;29;20735;-49
2023/08/13 03:20:33;;;;;;;8.15;2.85;;;16.70;99.90;;;;;;4860970;29;20213;-52
2023/08/13 03:22:59;;;;;;;7.75;2.33;;;16.70;99.90;;;;;;4860866;29;20210;-47
2023/08/13 03:25:25;;;;;;;5.05;2.40;;;16.70;99.90;;;;;;4860858;29;20186;-50
2023/08/13 03:27:51;;;;;;;7.22;2.72;;;16.70;99.90;;;;;;4861054;29;20223;-47
2023/08/13 03:30:16;;;;;;;6.75;2.88;;;16.70;99.90;;;;;;4844064;29;20209;-50
2023/08/13 03:32:42;;;;;;;6.68;2.42;;;16.80;99.90;;;;;;4860753;29;20182;-53
2023/08/13 03:35:08;;;;;;;9.65;2.72;;;16.80;99.90;;;;;;4860825;29;20549;-50
2023/08/13 03:37:33;;;;;;;7.25;2.80;;;16.80;99.90;;;;;;4860535;29;20237;-51
2023/08/13 03:39:59;;;;;;;5.80;2.65;;;16.70;99.90;;;;;;4860722;29;20551;-52
2023/08/13 03:42:25;;;;;;;6.63;2.25;;;16.70;99.90;;;;;;4860833;29;20666;-50
2023/08/13 03:44:50;;;;;;;6.03;2.70;;;16.70;99.90;;;;;;4860463;29;20213;-51
2023/08/13 03:47:16;;;;;;;8.55;2.83;;;16.70;99.90;;;;;;4860698;29;20193;-51
2023/08/13 03:49:42;;;;;;;6.70;2.70;;;16.70;99.90;;;;;;4860682;29;20711;-51
2023/08/13 03:52:09;;;;;;;5.95;2.67;;;16.70;99.90;;;;;;4860963;29;20178;-52
2023/08/13 03:54:35;;;;;;;7.85;2.50;;;16.70;99.90;;;;;;4860570;29;20262;-51
2023/08/13 03:57:01;;;;;;;7.15;3.03;;;16.60;99.90;;;;;;4844059;29;20604;-50
2023/08/13 03:59:27;;;;;;;6.00;3.03;;;16.60;99.90;;;;;;4860516;29;20194;-51
2023/08/13 04:01:52;;;;;;;10.10;2.97;;;16.70;99.90;;;;;;4860562;29;20178;-51
2023/08/13 04:04:18;;;;;;;6.65;2.85;;;16.70;99.90;;;;;;4860503;29;20246;-51
2023/08/13 04:06:44;;;;;;;10.27;2.47;;;16.60;99.90;;;;;;4860614;29;20311;-52
2023/08/13 04:09:09;;;;;;;6.13;2.75;;;16.50;99.90;;;;;;4860520;29;20182;-51
2023/08/13 04:11:35;;;;;;;8.18;2.97;;;16.50;99.90;;;;;;4860352;29;20217;-48
2023/08/13 04:14:01;;;;;;;7.30;2.63;;;16.40;99.90;;;;;;4860604;29;20597;-51
2023/08/13 04:16:27;;;;;;;7.15;2.70;;;16.40;99.90;;;;;;4863702;29;20186;-52
2023/08/13 04:18:52;;;;;;;5.85;2.72;;;16.40;99.90;;;;;;4863717;29;20182;-51
2023/08/13 04:21:18;;;;;;;8.52;2.70;;;16.50;99.90;;;;;;4863904;29;20237;-52
2023/08/13 04:23:44;;;;;;;6.88;2.60;;;16.50;99.90;;;;;;4863531;29;20301;-52
2023/08/13 04:26:10;;;;;;;6.82;2.40;;;16.50;99.90;;;;;;4863926;29;20186;-52
2023/08/13 04:28:35;;;;;;;6.90;2.50;;;16.60;99.90;;;;;;4863337;29;20185;-50
2023/08/13 04:31:01;;;;;;;8.35;2.53;;;16.50;99.90;;;;;;4864026;29;20502;-52
2023/08/13 04:33:27;;;;;;;4.70;2.45;;;16.50;99.90;;;;;;4863810;29;20564;-52
2023/08/13 04:35:53;;;;;;;7.40;2.78;;;16.40;99.90;;;;;;4863306;29;20255;-51
2023/08/13 04:38:20;;;;;;;6.78;3.38;;;16.50;99.90;;;;;;4863387;29;20185;-51
2023/08/13 04:40:47;;;;;;;6.75;2.42;;;16.50;99.90;;;;;;4863310;29;20171;-51
2023/08/13 04:43:14;;;;;;;9.82;2.90;;;16.50;99.90;;;;;;4863024;29;20206;-49
2023/08/13 04:45:39;;;;;;;7.47;2.90;;;16.50;99.90;;;;;;4863270;29;20647;-50
2023/08/13 04:48:05;;;;;;;12.43;3.08;;;16.50;99.90;;;;;;4863352;29;20235;-52
2023/08/13 04:50:31;;;;;;;9.52;2.72;;;16.50;99.90;;;;;;4863062;29;20186;-51
2023/08/13 04:52:57;;;;;;;6.40;2.50;;;16.50;99.90;;;;;;4863099;29;20200;-50
2023/08/13 04:55:22;;;;;;;9.27;2.95;;;16.50;99.90;;;;;;4863019;29;20186;-48
2023/08/13 04:57:48;;;;;;;6.07;2.28;;;16.50;99.90;;;;;;4862972;29;20640;-49
2023/08/13 05:00:14;;;;;;;5.93;2.75;;;16.50;99.90;;;;;;4863068;29;20178;-49
2023/08/13 05:02:40;;;;;;;9.55;2.85;;;16.50;99.90;;;;;;4862925;29;20663;-51
2023/08/13 05:05:06;;;;;;;7.53;3.10;;;16.50;99.90;;;;;;4863014;29;20209;-52
2023/08/13 05:07:31;;;;;;;7.07;2.78;;;16.50;99.90;;;;;;4863010;29;20178;-48
2023/08/13 05:09:57;;;;;;;6.53;2.70;;;16.60;99.90;;;;;;4862681;29;20189;-49
2023/08/13 05:12:22;;;;;;;6.20;2.50;;;16.70;99.90;;;;;;4862615;29;20269;-51
2023/08/13 05:14:48;;;;;;;6.95;2.53;;;16.70;99.90;;;;;;4862682;29;20327;-51
2023/08/13 05:17:21;;;;;;;8.27;2.97;;;16.70;99.90;;;;;;4862757;29;20178;-52
2023/08/13 05:19:47;;;;;;;5.85;2.42;;;16.80;99.90;;;;;;4862593;29;20184;-50
2023/08/13 05:22:13;;;;;;;5.85;2.72;;;16.90;99.90;;;;;;4862309;29;20277;-51
2023/08/13 05:24:39;;;;;;;9.60;2.80;;;16.90;99.90;;;;;;4862383;29;20702;-52
2023/08/13 05:27:05;;;;;;;8.77;2.80;;;17.00;99.90;;;;;;4861596;29;20264;-52
2023/08/13 05:29:30;;;;;;;6.18;2.53;;;17.00;99.90;;;;;;4862524;29;20226;-50
2023/08/13 05:31:56;;;;;;;7.00;2.70;;;17.10;99.90;;;;;;4862234;29;20185;-49
2023/08/13 05:34:22;;;;;;;6.60;2.53;;;17.10;99.90;;;;;;4862361;29;20644;-50
2023/08/13 05:36:47;;;;;;;7.80;2.83;;;17.20;99.90;;;;;;4862078;29;20325;-51
2023/08/13 05:39:13;;;;;;;7.57;2.50;;;17.20;99.90;;;;;;4862183;29;20185;-50
2023/08/13 05:41:38;;;;;;;5.47;2.40;;;17.20;99.90;;;;;;4862068;29;20265;-50
2023/08/13 05:44:04;;;;;;;4.93;2.72;;;17.20;99.90;;;;;;4862250;29;20240;-51
2023/08/13 05:46:30;;;;;;;6.22;2.58;;;17.20;99.90;;;;;;4862424;29;20185;-52
2023/08/13 05:48:55;;;;;;;8.77;2.60;;;17.20;99.90;;;;;;4862095;29;20182;-52
2023/08/13 05:51:22;;;;;;;8.57;2.67;;;17.20;99.90;;;;;;4861984;29;20509;-51
2023/08/13 05:53:48;;;;;;;4.95;2.17;;;17.30;99.90;;;;;;4861971;29;20197;-52
2023/08/13 05:56:13;;;;;;;9.68;2.83;;;17.40;99.90;;;;;;4861793;29;20182;-50
2023/08/13 05:58:39;;;;;;;7.75;3.13;;;17.40;99.90;;;;;;4861939;29;20692;-51
2023/08/13 06:01:05;;;;;;;6.95;2.40;;;17.50;99.90;;;;;;4861952;29;20544;-49
2023/08/13 06:03:31;;;;;;;8.45;2.80;;;17.50;99.90;;;;;;4861735;29;20690;-52
2023/08/13 06:05:57;;;;;;;7.22;2.45;;;17.50;99.90;;;;;;4861760;29;20178;-52
2023/08/13 06:08:23;;;;;;;6.55;2.50;;;17.50;99.90;;;;;;4861645;29;20229;-52
2023/08/13 06:10:48;;;;;;;5.28;2.63;;;17.50;99.90;;;;;;4861496;29;20594;-50
2023/08/13 06:13:14;;;;;;;7.13;2.42;;;17.60;99.90;;;;;;4861852;29;20186;-51
2023/08/13 06:15:39;;;;;;;9.20;2.80;;;17.60;99.90;;;;;;4861694;29;20189;-51
2023/08/13 06:18:05;;;;;;;7.20;2.58;;;17.60;99.90;;;;;;4861674;29;20234;-51
2023/08/13 06:20:31;;;;;;;7.50;2.65;;;17.60;99.90;;;;;;4861536;29;20196;-50
2023/08/13 06:22:57;;;;;;;6.22;2.35;;;17.60;99.90;;;;;;4861429;29;20214;-47
2023/08/13 06:25:24;;;;;;;8.40;2.83;;;17.60;99.90;;;;;;4861198;29;20728;-51
2023/08/13 06:27:49;;;;;;;6.60;2.80;;;17.60;99.90;;;;;;4861512;29;20190;-52
2023/08/13 06:30:16;;;;;;;5.47;2.25;;;17.70;99.90;;;;;;4861511;29;20189;-50
2023/08/13 06:32:42;;;;;;;5.15;2.65;;;17.70;99.90;;;;;;4861326;29;20189;-52
2023/08/13 06:35:08;;;;;;;8.02;2.90;;;17.60;99.90;;;;;;4861673;29;20182;-51
2023/08/13 06:37:33;;;;;;;6.55;2.70;;;17.60;99.90;;;;;;4844594;29;20265;-48
2023/08/13 06:39:59;;;;;;;8.90;2.53;;;17.70;99.90;;;;;;4860990;29;20617;-49
2023/08/13 06:42:25;;;;;;;5.60;2.95;;;17.70;99.90;;;;;;4861182;29;20182;-48
2023/08/13 06:44:50;;;;;;;7.88;2.70;;;17.70;99.90;;;;;;4861223;29;20218;-52
2023/08/13 06:47:16;;;;;;;6.63;2.42;;;17.80;99.90;;;;;;4861140;29;20193;-52
2023/08/13 06:49:42;;;;;;;8.10;2.72;;;17.80;99.90;;;;;;4861102;29;20186;-53
2023/08/13 06:52:07;;;;;;;6.25;2.47;;;17.80;99.90;;;;;;4860979;29;20186;-50
2023/08/13 06:54:33;;;;;;;8.75;2.83;;;17.80;99.90;;;;;;4860957;29;20186;-51
2023/08/13 06:56:59;;;;;;;7.18;2.92;;;17.90;99.90;;;;;;4861010;29;20182;-51
2023/08/13 06:59:25;;;;;;;6.70;2.60;;;17.90;99.90;;;;;;4860948;29;20659;-51
2023/08/13 07:01:50;;;;;;;8.85;2.65;;;17.90;99.90;;;;;;4860944;29;20182;-50
2023/08/13 07:04:16;;;;;;;8.18;2.78;;;18.00;99.90;;;;;;4860857;29;20323;-49
2023/08/13 07:06:42;;;;;;;7.13;2.55;;;18.00;99.90;;;;;;4860912;29;20258;-52
2023/08/13 07:09:08;;;;;;;7.13;2.67;;;18.20;99.90;;;;;;4860800;29;20181;-50
2023/08/13 07:11:36;;;;;;;6.82;3.05;;;18.20;99.90;;;;;;4861028;29;20210;-52
2023/08/13 07:14:03;;;;;;;6.38;2.40;;;18.20;99.90;;;;;;4860720;29;20663;-52
2023/08/13 07:16:29;;;;;;;9.35;2.58;;;18.20;99.90;;;;;;4861058;29;20238;-50
2023/08/13 07:18:55;;;;;;;6.47;2.88;;;18.20;99.90;;;;;;4860761;29;20262;-52
2023/08/13 07:21:21;;;;;;;7.18;2.78;;;18.20;99.90;;;;;;4860791;29;20234;-49
2023/08/13 07:23:47;;;;;;;7.88;2.60;;;18.20;99.90;;;;;;4860557;29;20642;-51
2023/08/13 07:26:13;;;;;;;7.93;2.75;;;18.30;99.90;;;;;;4860808;29;20201;-49
2023/08/13 07:28:40;;;;;;;7.85;3.00;;;18.40;99.90;;;;;;4860877;29;20178;-48
2023/08/13 07:31:06;;;;;;;8.45;2.80;;;18.50;99.90;;;;;;4860577;29;20686;-51
2023/08/13 07:33:32;;;;;;;7.40;2.38;;;18.60;99.90;;;;;;4860749;29;20707;-51
2023/08/13 07:36:02;;;;;;;9.13;3.10;;;18.70;99.90;;;;;;4860521;29;20236;-49
2023/08/13 07:38:27;;;;;;;8.27;2.95;;;18.70;99.90;;;;;;4860467;29;20182;-49
2023/08/13 07:40:55;;;;;;;7.63;3.13;;;18.80;99.90;;;;;;4860566;29;20648;-49
2023/08/13 07:43:21;;;;;;;5.75;2.40;;;18.70;99.90;;;;;;4860573;29;20245;-51
2023/08/13 07:45:46;;;;;;;6.45;2.55;;;18.90;99.90;;;;;;4860697;29;20218;-48
2023/08/13 07:48:12;;;;;;;9.23;2.80;;;18.80;99.90;;;;;;4860611;29;20666;-48
2023/08/13 07:50:38;;;;;;;6.55;2.55;;;19.00;99.90;;;;;;4863203;29;20183;-50
2023/08/13 07:53:04;;;;;;;5.30;2.50;;;19.00;99.90;;;;;;4863904;29;20186;-49
2023/08/13 07:55:30;;;;;;;8.98;2.47;;;19.00;99.90;;;;;;4864101;29;20767;-51
2023/08/13 07:57:55;;;;;;;6.82;2.55;;;18.90;99.90;;;;;;4864055;29;20193;-48
2023/08/13 08:00:21;;;;;;;6.45;2.88;;;18.90;99.90;;;;;;4863852;29;20178;-51
2023/08/13 08:02:47;;;;;;;6.65;2.70;;;18.90;99.90;;;;;;4863789;29;20520;-49
2023/08/13 08:05:12;;;;;;;8.18;2.92;;;19.20;99.90;;;;;;4863678;29;20217;-49
2023/08/13 08:07:38;;;;;;;8.15;2.70;;;19.20;99.90;;;;;;4863537;29;20644;-47
2023/08/13 08:10:04;;;;;;;7.68;2.70;;;19.20;99.90;;;;;;4863958;29;20179;-48
2023/08/13 08:12:30;;;;;;;6.82;2.83;;;19.20;99.90;;;;;;4863812;29;20185;-52
2023/08/13 08:14:56;;;;;;;6.63;2.42;;;19.20;99.90;;;;;;4863471;29;20182;-52
2023/08/13 08:17:21;;;;;;;6.47;2.53;;;19.40;99.90;;;;;;4863761;29;20265;-50
2023/08/13 08:19:48;;;;;;;6.97;2.55;;;19.40;99.90;;;;;;4863638;29;20220;-51
2023/08/13 08:22:15;;;;;;;5.63;2.65;;;19.40;99.90;;;;;;4863394;29;20190;-50
2023/08/13 08:24:41;;;;;;;6.25;2.70;;;19.50;99.90;;;;;;4863547;29;20568;-52
2023/08/13 08:27:07;;;;;;;8.93;2.63;;;19.40;99.90;;;;;;4863563;29;20182;-52
2023/08/13 08:29:34;;;;;;;10.00;3.13;;;19.40;99.90;;;;;;4863474;29;20171;-50
2023/08/13 08:32:00;;;;;;;6.10;3.00;;;19.50;99.90;;;;;;4863276;29;20178;-53
2023/08/13 08:34:26;;;;;;;7.18;3.00;;;19.50;99.90;;;;;;4863181;29;20663;-52
2023/08/13 08:36:52;;;;;;;7.63;2.83;;;19.60;99.90;;;;;;4862966;29;20649;-51
2023/08/13 08:39:21;;;;;;;7.93;2.88;;;19.70;99.90;;;;;;4863436;29;20182;-51
2023/08/13 08:41:47;;;;;;;5.90;2.47;;;19.80;99.90;;;;;;4863168;29;20186;-51
2023/08/13 08:44:23;;;;;;;6.72;2.95;;;19.80;99.90;;;;;;4863100;29;20601;-52
2023/08/13 08:46:55;;;;;;;10.80;3.17;;;20.00;99.90;;;;;;4862973;29;20269;-49
2023/08/13 08:49:21;;;;;;;9.13;3.03;;;19.90;99.90;;;;;;4862713;29;20609;-48
2023/08/13 08:51:48;;;;;;;10.85;2.63;;;20.10;99.90;;;;;;4863015;29;20221;-49
2023/08/13 08:54:15;;;;;;;8.35;2.80;;;20.00;99.90;;;;;;4863062;29;20186;-52
2023/08/13 08:56:41;;;;;;;8.20;3.08;;;20.00;99.90;;;;;;4862867;29;20708;-49
2023/08/13 08:59:07;;;;;;;7.65;2.67;;;20.10;99.90;;;;;;4862854;29;20265;-52
2023/08/13 09:01:33;;;;;;;8.40;3.20;;;20.20;99.90;;;;;;4861696;29;20633;-51
2023/08/13 09:03:59;;;;;;;8.38;3.03;;;20.30;99.90;;;;;;4862447;29;20274;-47
2023/08/13 09:06:52;;;;;;;8.52;2.55;;;20.60;99.90;;;;;;4862895;29;20265;-51
2023/08/13 09:09:18;;;;;;;9.45;2.78;;;20.90;99.90;;;;;;4862900;29;20184;-49
2023/08/13 09:11:45;;;;;;;7.63;2.90;;;20.90;99.90;;;;;;4862632;29;20606;-51
2023/08/13 09:14:10;;;;;;;9.35;2.70;;;21.00;99.90;;;;;;4862614;29;20182;-52
2023/08/13 09:16:36;;;;;;;5.75;2.42;;;21.20;99.90;;;;;;4863033;29;20189;-48
2023/08/13 09:19:02;;;;;;;6.93;2.67;;;21.20;99.90;;;;;;4862623;29;20273;-59
2023/08/13 09:21:29;;;;;;;8.82;2.75;;;21.20;99.90;;;;;;4862508;29;20186;-47
2023/08/13 09:23:58;;;;;;;6.32;2.72;;;21.20;99.90;;;;;;4862289;29;20293;-51
2023/08/13 09:26:27;;;;;;;6.75;2.38;;;21.40;99.90;;;;;;4862365;29;20306;-52
2023/08/13 09:28:53;;;;;;;7.22;2.63;;;21.60;99.90;;;;;;4862194;29;20551;-50
2023/08/13 09:31:23;;;;;;;5.95;2.42;;;21.80;99.90;;;;;;4862447;29;20182;-51
2023/08/13 09:33:48;;;;;;;5.30;2.17;;;22.10;99.90;;;;;;4862404;29;20182;-51
2023/08/13 09:36:14;;;;;;;7.22;2.55;;;22.40;99.90;;;;;;4862401;29;20692;-52
2023/08/13 09:38:39;;;;;;;5.88;2.38;;;22.60;99.90;;;;;;4862169;29;20207;-51
2023/08/13 09:41:06;;;;;;;5.97;2.58;;;22.50;99.90;;;;;;4862062;29;20188;-53
2023/08/13 09:43:34;;;;;;;7.32;2.42;;;22.50;99.90;;;;;;4861868;29;20202;-51
2023/08/13 09:46:01;;;;;;;8.15;2.55;;;22.60;99.90;;;;;;4862170;29;20186;-49
2023/08/13 09:48:27;;;;;;;6.90;2.60;;;22.60;99.90;;;;;;4862002;29;20608;-52
2023/08/13 09:50:55;;;;;;;5.93;2.30;;;22.60;99.90;;;;;;4862001;29;20218;-51
2023/08/13 09:53:24;;;;;;;7.88;2.55;;;22.70;99.90;;;;;;4861962;29;20186;-48
2023/08/13 09:56:00;;;;;;;8.90;2.63;;;22.90;99.90;;;;;;4845320;29;20601;-49
2023/08/13 09:58:27;;;;;;;6.07;2.10;;;22.90;99.90;;;;;;4862022;29;20260;-51
2023/08/13 10:00:52;;;;;;;6.90;2.40;;;23.00;99.90;;;;;;4862201;29;20182;-51
2023/08/13 10:03:18;;;;;;;8.55;2.67;;;23.20;99.90;;;;;;4861532;29;20213;-52
2023/08/13 10:05:44;;;;;;;5.60;2.75;;;23.50;99.90;;;;;;4861721;29;20194;-48
2023/08/13 10:08:11;;;;;;;9.10;2.60;;;23.40;99.90;;;;;;4861566;29;20206;-52
2023/08/13 10:10:37;;;;;;;7.72;2.75;;;23.30;99.90;;;;;;4861468;29;20186;-52
2023/08/13 10:13:04;;;;;;;6.25;2.50;;;23.30;99.90;;;;;;4861386;29;20652;-52
2023/08/13 10:15:32;;;;;;;7.22;2.28;;;23.40;99.90;;;;;;4861714;29;20178;-54
2023/08/13 10:17:58;;;;;;;7.90;2.50;;;23.50;99.90;;;;;;4861885;29;20196;-53
2023/08/13 10:20:25;;;;;;;7.75;2.38;;;23.70;99.90;;;;;;4861240;29;20174;-51
2023/08/13 10:22:53;;;;;;;6.45;2.42;;;23.70;99.90;;;;;;4861408;29;20261;-52
2023/08/13 10:25:30;;;;;;;5.28;2.08;;;23.50;99.90;;;;;;4861341;29;20243;-50
2023/08/13 10:27:56;;;;;;;7.22;2.45;;;23.70;99.90;;;;;;4861636;29;20181;-50
2023/08/13 10:30:22;;;;;;;6.35;2.33;;;23.50;99.90;;;;;;4861437;29;20174;-52
2023/08/13 10:33:14;;;;;;;8.25;2.70;;;23.30;99.90;;;;;;4861317;29;20182;-50
2023/08/13 10:35:41;;;;;;;4.63;2.05;;;23.00;99.90;;;;;;4856673;29;20242;-52
2023/08/13 10:38:08;;;;;;;7.68;2.55;;;22.70;99.90;;;;;;4861372;29;20246;-53
2023/08/13 10:40:34;;;;;;;5.00;2.28;;;22.60;99.90;;;;;;4861106;29;20177;-52
2023/08/13 10:43:03;;;;;;;7.63;2.70;;;22.70;99.90;;;;;;4861169;29;20632;-52
2023/08/13 10:45:35;;;;;;;7.65;2.63;;;23.20;99.90;;;;;;4861139;29;20196;-50
2023/08/13 10:48:05;;;;;;;5.10;2.42;;;23.40;99.90;;;;;;4861073;29;20678;-52
2023/08/13 10:50:36;;;;;;;6.60;1.90;;;23.80;99.90;;;;;;4860793;29;20174;-53
2023/08/13 10:53:03;;;;;;;5.78;2.28;;;23.80;99.90;;;;;;4861207;29;20629;-53
2023/08/13 10:55:32;;;;;;;5.47;2.42;;;23.60;99.90;;;;;;4861027;29;20178;-52
2023/08/13 10:57:59;;;;;;;6.88;2.50;;;23.20;99.90;;;;;;4860928;29;20230;-50
2023/08/13 11:00:26;;;;;;;7.97;2.50;;;22.90;99.90;;;;;;4861020;29;20179;-50
2023/08/13 11:02:53;;;;;;;7.32;2.20;;;22.80;99.90;;;;;;4860708;29;20178;-50
2023/08/13 11:05:20;;;;;;;8.20;2.83;;;23.00;99.90;;;;;;4861322;29;20192;-51
2023/08/13 11:07:46;;;;;;;6.45;2.33;;;23.40;99.90;;;;;;4860922;29;20189;-50
2023/08/13 11:10:20;;;;;;;5.75;1.90;;;23.80;99.90;;;;;;4861067;29;20585;-50
2023/08/13 11:12:49;;;;;;;7.97;2.65;;;24.20;99.90;;;;;;4860848;29;20249;-51
2023/08/13 11:15:16;;;;;;;8.07;2.35;;;24.40;99.90;;;;;;4860669;29;20192;-53
2023/08/13 11:17:46;;;;;;;7.03;2.10;;;24.30;99.90;;;;;;4860854;29;20186;-53
2023/08/13 11:20:14;;;;;;;4.22;1.95;;;24.30;99.90;;;;;;4860938;29;20192;-52
2023/08/13 11:22:40;;;;;;;7.32;2.05;;;24.50;99.90;;;;;;4860945;29;20186;-52
2023/08/13 11:25:08;;;;;;;5.43;2.33;;;24.60;99.90;;;;;;4862786;29;20265;-52
2023/08/13 11:27:35;;;;;;;8.27;2.35;;;24.70;99.90;;;;;;4864521;29;20186;-47
2023/08/13 11:30:01;;;;;;;5.15;2.30;;;24.70;99.90;;;;;;4864413;29;20221;-51
2023/08/13 11:32:26;;;;;;;5.68;2.00;;;24.60;99.90;;;;;;4864321;29;20672;-49
2023/08/13 11:34:52;;;;;;;6.15;2.13;;;24.60;99.90;;;;;;4864416;29;20193;-50
2023/08/13 11:37:18;;;;;;;8.95;2.17;;;24.50;99.90;;;;;;4864347;29;20229;-53
2023/08/13 11:39:44;;;;;;;6.30;2.30;;;24.40;99.90;;;;;;4864452;29;20640;-51
2023/08/13 11:42:10;;;;;;;12.50;2.50;;;24.50;99.90;;;;;;4847940;29;20261;-51
2023/08/13 11:44:36;;;;;;;5.85;2.03;;;24.70;99.90;;;;;;4864056;29;20205;-50
2023/08/13 11:47:05;;;;;;;4.60;1.92;;;24.90;99.90;;;;;;4864246;29;20190;-52
2023/08/13 11:49:39;;;;;;;6.22;1.85;;;25.00;99.90;;;;;;4864452;29;20182;-53
2023/08/13 11:52:06;;;;;;;7.05;1.98;;;25.10;99.90;;;;;;4864244;29;20220;-53
2023/08/13 11:54:34;;;;;;;6.13;1.98;;;25.20;99.90;;;;;;4863920;29;20193;-49
2023/08/13 11:56:59;;;;;;;6.45;2.38;;;25.20;99.90;;;;;;4863991;29;20201;-51
2023/08/13 11:59:26;;;;;;;6.43;2.35;;;24.70;99.90;;;;;;4864144;29;20216;-53
2023/08/13 12:01:56;;;;;;;3.88;1.65;;;24.80;99.90;;;;;;4863987;29;20190;-52
2023/08/13 12:04:23;;;;;;;7.57;2.25;;;25.10;99.90;;;;;;4863806;29;20714;-52
2023/08/13 12:06:51;;;;;;;7.35;2.00;;;25.40;99.90;;;;;;4863835;29;20239;-49
2023/08/13 12:09:17;;;;;;;3.90;1.67;;;25.30;99.90;;;;;;4863834;29;20182;-55
2023/08/13 12:11:43;;;;;;;7.28;2.28;;;25.50;99.90;;;;;;4863828;29;20186;-50
2023/08/13 12:14:10;;;;;;;5.72;1.98;;;25.70;99.90;;;;;;4847323;29;20719;-50
2023/08/13 12:16:36;;;;;;;5.63;1.83;;;25.50;99.90;;;;;;4863726;29;20182;-52
2023/08/13 12:19:07;;;;;;;6.50;1.85;;;25.30;99.90;;;;;;4863731;29;20178;-51
2023/08/13 12:21:36;;;;;;;5.93;1.80;;;25.40;99.90;;;;;;4863251;29;20226;-49
2023/08/13 12:24:04;;;;;;;4.50;1.98;;;25.40;99.90;;;;;;4863276;29;20263;-52
2023/08/13 12:26:31;;;;;;;8.27;2.05;;;25.50;99.90;;;;;;4863618;29;20197;-52
2023/08/13 12:28:57;;;;;;;6.13;1.85;;;25.30;99.90;;;;;;4847037;29;20190;-51
2023/08/13 12:31:24;;;;;;;5.35;1.73;;;25.10;99.90;;;;;;4863566;29;20221;-52
2023/08/13 12:33:50;;;;;;;5.70;1.73;;;24.80;99.90;;;;;;4863241;29;20289;-51
2023/08/13 12:36:16;;;;;;;5.68;1.73;;;24.60;99.90;;;;;;4863242;29;20312;-52
2023/08/13 12:38:42;;;;;;;6.30;1.90;;;24.20;99.90;;;;;;4863238;29;20262;-52
2023/08/13 12:41:08;;;;;;;5.22;1.80;;;23.80;99.90;;;;;;4863389;29;20182;-51
2023/08/13 12:43:37;;;;;;;5.40;2.00;;;23.50;99.90;;;;;;4863227;29;20286;-52